Time;durP1;ratioP1;P1;durP2;ratioP2;P2;SDS_P1;SDS_P2;PMS_P1;PMS_P2;Temp;Humidity;BMP_temperature;BMP_pressure;BME280_temperature;BME280_humidity;BME280_pressure;Samples;Min_cycle;Max_cycle;Signal;HPM_P1;HPM_P2
2023/01/04 00:00:31;;;;;;;;;;;27.00;99.90;;;;;;5074800;28;20352;-72
2023/01/04 00:02:58;;;;;;;;;;;26.90;99.90;;;;;;5072190;28;20007;-73
2023/01/04 00:05:24;;;;;;;;;;;26.90;99.90;;;;;;5071017;28;20015;-72
2023/01/04 00:07:52;;;;;;;;;;;27.00;99.90;;;;;;5069011;28;20306;-71
2023/01/04 00:10:19;;;;;;;;;;;27.10;99.90;;;;;;5063341;28;19923;-70
2023/01/04 00:12:45;;;;;;;;;;;27.10;99.90;;;;;;5055492;28;19913;-71
2023/01/04 00:15:12;;;;;;;;;;;27.20;99.90;;;;;;5064201;28;19978;-70
2023/01/04 00:17:42;;;;;;;;;;;27.20;99.90;;;;;;5063316;28;19955;-72
2023/01/04 00:20:09;;;;;;;;;;;27.20;99.90;;;;;;5073242;28;20323;-72
2023/01/04 00:22:36;;;;;;;;;;;27.20;99.90;;;;;;5070176;28;19912;-72
2023/01/04 00:25:02;;;;;;;;;;;27.20;99.90;;;;;;5074276;28;19992;-71
2023/01/04 00:27:29;;;;;;;;;;;27.20;99.90;;;;;;5060719;28;19913;-71
2023/01/04 00:29:56;;;;;;;;;;;27.30;99.90;;;;;;5071069;28;19912;-71
2023/01/04 00:32:22;;;;;;;;;;;27.30;99.90;;;;;;5071568;28;19917;-70
2023/01/04 00:34:49;;;;;;;;;;;27.40;99.90;;;;;;5070146;28;20290;-71
2023/01/04 00:37:16;;;;;;;;;;;27.50;99.90;;;;;;5070620;28;20259;-73
2023/01/04 00:39:42;;;;;;;;;;;27.60;99.90;;;;;;5059177;28;20706;-71
2023/01/04 00:42:09;;;;;;;;;;;27.60;99.90;;;;;;5062518;28;19913;-71
2023/01/04 00:44:35;;;;;;;;;;;27.70;99.90;;;;;;5060903;28;19924;-69
2023/01/04 00:47:03;;;;;;;;;;;27.70;99.90;;;;;;5060550;28;19953;-70
2023/01/04 00:49:30;;;;;;;;;;;27.50;99.90;;;;;;5064640;28;20108;-70
2023/01/04 00:51:57;;;;;;;;;;;27.40;99.90;;;;;;5068285;28;20007;-71
2023/01/04 00:54:24;;;;;;;;;;;27.30;99.90;;;;;;5067030;28;19924;-70
2023/01/04 00:56:51;;;;;;;;;;;27.30;99.90;;;;;;5066779;28;19916;-70
2023/01/04 00:59:19;;;;;;;;;;;27.20;99.90;;;;;;5062659;28;20286;-71
2023/01/04 01:01:46;;;;;;;;;;;27.10;99.90;;;;;;5061847;28;19912;-72
2023/01/04 01:04:14;;;;;;;;;;;27.00;99.90;;;;;;5063333;28;20034;-70
2023/01/04 01:06:40;;;;;;;;;;;26.90;99.90;;;;;;5070139;28;19921;-72
2023/01/04 01:09:07;;;;;;;;;;;26.90;99.90;;;;;;5063345;28;19931;-70
2023/01/04 01:11:35;;;;;;;;;;;26.90;99.90;;;;;;5067886;28;20830;-70
2023/01/04 01:14:02;;;;;;;;;;;26.90;99.90;;;;;;5060479;28;19999;-68
2023/01/04 01:16:29;;;;;;;;;;;26.90;99.90;;;;;;5060870;28;19912;-72
2023/01/04 01:18:56;;;;;;;;;;;27.10;99.90;;;;;;5060960;28;20373;-72
2023/01/04 01:21:24;;;;;;;;;;;27.30;99.90;;;;;;5074805;28;19924;-72
2023/01/04 01:23:51;;;;;;;;;;;27.90;99.90;;;;;;5065433;28;19924;-73
2023/01/04 01:26:19;;;;;;;;;;;28.40;99.90;;;;;;5069654;28;19912;-70
2023/01/04 01:28:46;;;;;;;;;;;28.70;99.90;;;;;;5062677;28;19913;-71
2023/01/04 01:31:14;;;;;;;;;;;28.60;99.90;;;;;;5071389;28;19912;-70
2023/01/04 01:33:41;;;;;;;;;;;28.30;99.90;;;;;;5061744;28;19981;-70
2023/01/04 01:36:09;;;;;;;;;;;28.10;99.90;;;;;;5067951;28;19917;-72
2023/01/04 01:38:36;;;;;;;;;;;28.00;99.90;;;;;;5065540;28;20012;-70
2023/01/04 01:41:04;;;;;;;;;;;27.90;99.90;;;;;;5065295;28;19921;-69
2023/01/04 01:43:47;;;;;;;;;;;27.90;99.90;;;;;;5067290;28;20032;-71
2023/01/04 01:46:15;;;;;;;;;;;27.90;99.90;;;;;;5063307;28;19956;-69
2023/01/04 01:48:42;;;;;;;;;;;28.40;99.90;;;;;;5059302;28;19912;-69
2023/01/04 01:51:08;;;;;;;;;;;28.60;99.90;;;;;;5059002;28;19916;-72
2023/01/04 01:53:38;;;;;;;;;;;28.50;99.90;;;;;;5068218;28;20219;-72
2023/01/04 01:56:06;;;;;;;;;;;28.30;99.90;;;;;;5071596;28;19916;-71
2023/01/04 01:58:35;;;;;;;;;;;28.20;99.90;;;;;;5062794;28;19913;-73
2023/01/04 02:01:02;;;;;;;;;;;28.30;99.90;;;;;;5051848;28;19916;-71
2023/01/04 02:03:34;;;;;;;;;;;28.30;99.90;;;;;;5065049;28;19999;-72
2023/01/04 02:06:02;;;;;;;;;;;28.20;99.90;;;;;;5069984;28;19924;-71
2023/01/04 02:08:30;;;;;;;;;;;28.00;99.90;;;;;;5064769;28;19966;-71
2023/01/04 02:10:57;;;;;;;;;;;28.00;99.90;;;;;;5072672;28;19960;-70
2023/01/04 02:14:25;;;;;;;;;;;27.90;99.90;;;;;;5066578;28;19955;-72
2023/01/04 02:16:22;;;;;;;;;;;27.90;99.90;;;;;;5065882;28;19916;-70
2023/01/04 02:19:12;;;;;;;;;;;27.70;99.90;;;;;;5060523;28;19912;-71
2023/01/04 02:21:38;;;;;;;;;;;27.60;99.90;;;;;;5042742;28;20333;-71
2023/01/04 02:24:23;;;;;;;;;;;27.60;99.90;;;;;;5068376;28;19958;-71
2023/01/04 02:26:56;;;;;;;;;;;27.40;99.90;;;;;;5057934;28;19912;-72
2023/01/04 02:29:27;;;;;;;;;;;27.30;99.90;;;;;;5065956;28;20398;-72
2023/01/04 02:31:56;;;;;;;;;;;27.20;99.90;;;;;;5064909;28;19917;-72
2023/01/04 02:34:23;;;;;;;;;;;27.30;99.90;;;;;;5053867;28;20029;-71
2023/01/04 02:37:05;;;;;;;;;;;27.40;99.90;;;;;;5066885;28;20007;-72
2023/01/04 02:39:44;;;;;;;;;;;27.50;99.90;;;;;;5062653;28;20270;-72
2023/01/04 02:45:33;;;;;;;;;;;26.90;99.90;;;;;;5056948;28;20027;-71
2023/01/04 02:50:56;;;;;;;;;;;26.30;99.90;;;;;;5067937;28;19915;-73
2023/01/04 02:53:29;;;;;;;;;;;26.20;99.90;;;;;;5067372;28;20366;-71
2023/01/04 02:55:58;;;;;;;;;;;26.00;99.90;;;;;;5066127;28;19954;-72
2023/01/04 02:58:28;;;;;;;;;;;25.80;99.90;;;;;;5067569;28;19912;-72
2023/01/04 03:06:57;;;;;;;;;;;25.50;99.90;;;;;;5063552;28;19935;-71
2023/01/04 03:09:28;;;;;;;;;;;25.40;99.90;;;;;;5065151;28;20410;-74
2023/01/04 03:14:51;;;;;;;;;;;25.20;99.90;;;;;;5068500;28;19971;-74
2023/01/04 03:17:20;;;;;;;;;;;24.70;99.90;;;;;;5057049;28;20033;-72
2023/01/04 03:19:50;;;;;;;;;;;24.10;99.90;;;;;;5068070;28;19924;-73
2023/01/04 03:36:14;;;;;;;;;;;22.50;99.90;;;;;;5070245;28;19947;-71
2023/01/04 03:50:18;;;;;;;;;;;22.70;99.90;;;;;;5062976;28;19920;-71
2023/01/04 03:52:45;;;;;;;;;;;22.90;99.90;;;;;;5054783;28;20035;-72
2023/01/04 03:55:12;;;;;;;;;;;23.00;99.90;;;;;;5067974;28;19912;-71
2023/01/04 03:57:39;;;;;;;;;;;23.10;99.90;;;;;;5058581;28;19947;-73
2023/01/04 04:00:10;;;;;;;;;;;23.20;99.90;;;;;;5067079;28;19928;-72
2023/01/04 04:02:39;;;;;;;;;;;23.20;99.90;;;;;;5064744;28;19963;-71
2023/01/04 04:10:35;;;;;;;;;;;23.40;99.90;;;;;;5065885;28;19920;-70
2023/01/04 04:13:02;;;;;;;;;;;23.60;99.90;;;;;;5069967;28;19999;-70
2023/01/04 04:15:29;;;;;;;;;;;23.70;99.90;;;;;;5070215;28;19912;-71
2023/01/04 04:17:56;;;;;;;;;;;23.70;99.90;;;;;;5070003;28;19948;-71
2023/01/04 04:20:22;;;;;;;;;;;23.70;99.90;;;;;;5069886;28;19932;-71
2023/01/04 04:22:49;;;;;;;;;;;23.70;99.90;;;;;;5072088;28;20332;-69
2023/01/04 04:25:16;;;;;;;;;;;23.70;99.90;;;;;;5071793;28;19912;-70
2023/01/04 04:27:42;;;;;;;;;;;23.70;99.90;;;;;;5070687;28;19985;-69
2023/01/04 04:30:09;;;;;;;;;;;23.70;99.90;;;;;;5072803;28;19920;-70
2023/01/04 04:32:36;;;;;;;;;;;23.70;99.90;;;;;;5071540;28;19920;-71
2023/01/04 04:35:03;;;;;;;;;;;23.60;99.90;;;;;;5055286;28;20035;-72
2023/01/04 04:37:32;;;;;;;;;;;23.60;99.90;;;;;;5070881;28;19991;-71
2023/01/04 04:39:59;;;;;;;;;;;23.60;99.90;;;;;;5060748;28;19935;-71
2023/01/04 04:42:26;;;;;;;;;;;23.50;99.90;;;;;;5057383;28;19964;-70
2023/01/04 04:44:53;;;;;;;;;;;23.50;99.90;;;;;;5052849;28;19909;-69
2023/01/04 04:47:20;;;;;;;;;;;23.50;99.90;;;;;;5067353;28;19916;-72
2023/01/04 04:49:46;;;;;;;;;;;23.40;99.90;;;;;;5069735;28;19913;-70
2023/01/04 04:52:13;;;;;;;;;;;23.30;99.90;;;;;;5071787;28;20017;-71
2023/01/04 04:54:39;;;;;;;;;;;23.30;99.90;;;;;;5081622;28;19935;-68
2023/01/04 04:57:06;;;;;;;;;;;23.30;99.90;;;;;;5067835;28;19913;-68
2023/01/04 04:59:33;;;;;;;;;;;23.40;99.90;;;;;;5069999;28;19928;-69
2023/01/04 05:01:59;;;;;;;;;;;23.60;99.90;;;;;;5068060;28;20285;-70
2023/01/04 05:04:26;;;;;;;;;;;23.80;99.90;;;;;;5056999;28;19912;-71
2023/01/04 05:06:53;;;;;;;;;;;24.00;99.90;;;;;;5059284;28;19920;-71
2023/01/04 05:09:19;;;;;;;;;;;24.10;99.90;;;;;;5068218;28;19958;-70
2023/01/04 05:14:30;;;;;;;;;;;24.20;99.90;;;;;;5064198;28;20357;-72
2023/01/04 05:16:57;;;;;;;;;;;24.30;99.90;;;;;;5058427;28;19920;-70
2023/01/04 05:19:24;;;;;;;;;;;24.40;99.90;;;;;;5065325;28;19919;-68
2023/01/04 05:21:51;;;;;;;;;;;24.50;99.90;;;;;;5067861;28;19916;-70
2023/01/04 05:24:17;;;;;;;;;;;24.70;99.90;;;;;;5064897;28;19919;-69
2023/01/04 05:26:44;;;;;;;;;;;24.90;99.90;;;;;;5069167;28;19950;-68
2023/01/04 05:30:49;;;;;;;;;;;25.10;99.90;;;;;;5060402;28;20017;-70
2023/01/04 05:31:57;;;;;;;;;;;25.20;99.90;;;;;;5064529;28;20343;-71
2023/01/04 05:34:24;;;;;;;;;;;25.20;99.90;;;;;;5066345;28;19923;-71
2023/01/04 05:36:50;;;;;;;;;;;25.00;99.90;;;;;;5059123;28;19920;-70
2023/01/04 05:39:17;;;;;;;;;;;24.90;99.90;;;;;;5066407;28;19939;-71
2023/01/04 05:44:28;;;;;;;;;;;24.70;99.90;;;;;;5066638;28;20457;-71
2023/01/04 05:46:55;;;;;;;;;;;24.70;99.90;;;;;;5063007;28;19915;-71
2023/01/04 05:49:22;;;;;;;;;;;24.50;99.90;;;;;;5068678;28;19957;-70
2023/01/04 05:51:48;;;;;;;;;;;24.40;99.90;;;;;;5067733;28;19920;-69
2023/01/04 05:54:15;;;;;;;;;;;24.20;99.90;;;;;;5057912;28;20937;-70
2023/01/04 05:56:41;;;;;;;;;;;24.10;99.90;;;;;;5067145;28;19918;-70
2023/01/04 05:59:08;;;;;;;;;;;24.00;99.90;;;;;;5060895;28;19917;-70
2023/01/04 06:01:35;;;;;;;;;;;24.00;99.90;;;;;;5058567;28;19927;-71
2023/01/04 06:04:02;;;;;;;;;;;23.90;99.90;;;;;;5097753;28;20278;-72
2023/01/04 06:06:28;;;;;;;;;;;23.70;99.90;;;;;;5062787;28;20370;-71
2023/01/04 06:08:55;;;;;;;;;;;23.60;99.90;;;;;;5058482;28;19912;-69
2023/01/04 06:11:21;;;;;;;;;;;23.50;99.90;;;;;;5058564;28;19918;-70
2023/01/04 06:13:48;;;;;;;;;;;23.40;99.90;;;;;;5069701;28;19908;-71
2023/01/04 06:16:15;;;;;;;;;;;23.40;99.90;;;;;;5071566;28;20347;-70
2023/01/04 06:18:41;;;;;;;;;;;23.40;99.90;;;;;;5065169;28;19919;-70
2023/01/04 06:21:08;;;;;;;;;;;23.40;99.90;;;;;;5068458;28;19924;-71
2023/01/04 06:23:35;;;;;;;;;;;23.40;99.90;;;;;;5072928;28;19916;-69
2023/01/04 06:26:01;;;;;;;;;;;23.50;99.90;;;;;;5069995;28;19913;-69
2023/01/04 06:28:28;;;;;;;;;;;23.40;99.90;;;;;;5063306;28;19927;-70
2023/01/04 06:30:55;;;;;;;;;;;23.40;99.90;;;;;;5073632;28;19939;-71
2023/01/04 06:33:22;;;;;;;;;;;23.40;99.90;;;;;;5073705;28;21070;-72
2023/01/04 06:35:55;;;;;;;;;;;23.40;99.90;;;;;;5073839;28;20325;-71
2023/01/04 06:38:21;;;;;;;;;;;23.40;99.90;;;;;;5055451;28;19921;-72
2023/01/04 06:40:48;;;;;;;;;;;23.20;99.90;;;;;;5061681;28;19921;-70
2023/01/04 06:43:15;;;;;;;;;;;23.10;99.90;;;;;;5064634;28;19919;-71
2023/01/04 06:45:42;;;;;;;;;;;23.00;99.90;;;;;;5064932;28;19916;-70
2023/01/04 06:48:09;;;;;;;;;;;22.90;99.90;;;;;;5057069;28;19920;-72
2023/01/04 06:50:36;;;;;;;;;;;22.90;99.90;;;;;;5063988;28;20430;-70
2023/01/04 06:53:02;;;;;;;;;;;22.80;99.90;;;;;;5062534;28;19912;-71
2023/01/04 06:55:29;;;;;;;;;;;22.80;99.90;;;;;;5068025;28;19958;-73
2023/01/04 06:57:56;;;;;;;;;;;22.80;99.90;;;;;;5063380;28;19928;-72
2023/01/04 07:00:23;;;;;;;;;;;22.80;99.90;;;;;;5066201;28;20028;-74
2023/01/04 07:02:49;;;;;;;;;;;22.70;99.90;;;;;;5064013;28;20000;-73
2023/01/04 07:05:16;;;;;;;;;;;22.60;99.90;;;;;;5061329;28;19921;-70
2023/01/04 07:07:43;;;;;;;;;;;22.50;99.90;;;;;;5054001;28;19917;-73
2023/01/04 07:10:10;;;;;;;;;;;22.50;99.90;;;;;;5061792;28;20067;-74
2023/01/04 07:12:37;;;;;;;;;;;22.40;99.90;;;;;;5068428;28;19912;-70
2023/01/04 07:15:05;;;;;;;;;;;22.40;99.90;;;;;;5059589;28;19978;-72
2023/01/04 07:17:31;;;;;;;;;;;22.40;99.90;;;;;;5065242;28;20257;-71
2023/01/04 07:19:58;;;;;;;;;;;22.50;99.90;;;;;;5056997;28;19924;-74
2023/01/04 07:22:25;;;;;;;;;;;22.60;99.90;;;;;;5065188;28;19924;-74
2023/01/04 07:24:52;;;;;;;;;;;22.60;99.90;;;;;;5059872;28;20358;-71
2023/01/04 07:27:18;;;;;;;;;;;22.70;99.90;;;;;;5059904;28;19920;-70
2023/01/04 07:29:45;;;;;;;;;;;22.70;99.90;;;;;;5057654;28;19959;-69
2023/01/04 07:32:12;;;;;;;;;;;22.70;99.90;;;;;;5066242;28;19920;-69
2023/01/04 07:34:42;;;;;;;;;;;22.80;99.90;;;;;;5064061;28;19920;-69
2023/01/04 07:37:09;;;;;;;;;;;22.80;99.90;;;;;;5064364;28;19996;-70
2023/01/04 07:39:36;;;;;;;;;;;22.80;99.90;;;;;;5057040;28;19978;-71
2023/01/04 07:42:02;;;;;;;;;;;22.80;99.90;;;;;;5056358;28;19983;-74
2023/01/04 07:44:30;;;;;;;;;;;22.90;99.90;;;;;;5066224;28;19916;-73
2023/01/04 07:46:56;;;;;;;;;;;22.80;99.90;;;;;;5066703;28;19966;-73
2023/01/04 07:49:23;;;;;;;;;;;22.60;99.90;;;;;;5102012;28;20231;-74
2023/01/04 07:51:50;;;;;;;;;;;22.50;99.90;;;;;;5071246;28;20336;-74
2023/01/04 07:54:16;;;;;;;;;;;22.40;99.90;;;;;;5080561;28;19913;-74
2023/01/04 07:56:44;;;;;;;;;;;22.40;99.90;;;;;;5071235;28;20012;-74
2023/01/04 07:59:12;;;;;;;;;;;22.30;99.90;;;;;;5069768;28;19922;-75
2023/01/04 08:01:38;;;;;;;;;;;22.20;99.90;;;;;;5070767;28;19927;-75
2023/01/04 08:04:06;;;;;;;;;;;22.20;99.90;;;;;;5072254;28;19962;-75
2023/01/04 08:06:33;;;;;;;;;;;22.20;99.90;;;;;;5072857;28;19920;-75
2023/01/04 08:09:00;;;;;;;;;;;22.10;99.90;;;;;;5067093;28;20042;-73
2023/01/04 08:11:27;;;;;;;;;;;22.10;99.90;;;;;;5073585;28;19912;-73
2023/01/04 08:13:53;;;;;;;;;;;22.00;99.90;;;;;;5066483;28;19955;-73
2023/01/04 08:16:30;;;;;;;;;;;22.00;99.90;;;;;;5065107;28;19913;-73
2023/01/04 08:18:58;;;;;;;;;;;22.00;99.90;;;;;;5056732;28;19912;-77
2023/01/04 08:21:27;;;;;;;;;;;21.90;99.90;;;;;;5071325;28;19965;-74
2023/01/04 08:23:54;;;;;;;;;;;21.70;99.90;;;;;;5059236;28;19920;-77
2023/01/04 08:26:21;;;;;;;;;;;21.70;99.90;;;;;;5071409;28;19925;-76
2023/01/04 08:28:48;;;;;;;;;;;21.60;99.90;;;;;;5065140;28;19928;-75
2023/01/04 08:31:16;;;;;;;;;;;21.50;99.90;;;;;;5069193;28;19934;-73
2023/01/04 08:33:43;;;;;;;;;;;21.50;99.90;;;;;;5072093;28;19917;-75
2023/01/04 08:36:18;;;;;;;;;;;21.40;99.90;;;;;;5070555;28;20027;-74
2023/01/04 08:38:45;;;;;;;;;;;21.40;99.90;;;;;;5061824;28;19921;-74
2023/01/04 08:41:12;;;;;;;;;;;21.30;99.90;;;;;;5069699;28;19924;-72
2023/01/04 08:43:39;;;;;;;;;;;21.30;99.90;;;;;;5068920;28;19955;-73
2023/01/04 08:46:06;;;;;;;;;;;21.20;99.90;;;;;;5069254;28;19920;-76
2023/01/04 08:48:33;;;;;;;;;;;21.20;99.90;;;;;;5070183;28;19927;-74
2023/01/04 08:51:01;;;;;;;;;;;21.20;99.90;;;;;;5105433;28;20370;-75
2023/01/04 08:53:28;;;;;;;;;;;21.10;99.90;;;;;;5076869;28;20003;-73
2023/01/04 08:55:55;;;;;;;;;;;21.10;99.90;;;;;;5072459;28;20317;-70
2023/01/04 08:58:22;;;;;;;;;;;21.10;99.90;;;;;;5071597;28;19970;-72
2023/01/04 09:00:49;;;;;;;;;;;21.10;99.90;;;;;;5069130;28;19959;-75
2023/01/04 09:03:16;;;;;;;;;;;21.10;99.90;;;;;;5069268;28;19913;-73
2023/01/04 09:05:43;;;;;;;;;;;21.00;99.90;;;;;;5063911;28;20311;-75
2023/01/04 09:08:10;;;;;;;;;;;21.10;99.90;;;;;;5062405;28;19996;-77
2023/01/04 09:10:38;;;;;;;;;;;21.00;99.90;;;;;;5061713;28;19912;-76
2023/01/04 09:13:05;;;;;;;;;;;21.00;99.90;;;;;;5066697;28;20290;-76
2023/01/04 09:15:32;;;;;;;;;;;21.00;99.90;;;;;;5066483;28;19958;-75
2023/01/04 09:17:59;;;;;;;;;;;21.00;99.90;;;;;;5064291;28;20385;-76
2023/01/04 09:20:26;;;;;;;;;;;21.00;99.90;;;;;;5072463;28;19920;-73
2023/01/04 09:22:53;;;;;;;;;;;21.00;99.90;;;;;;5070748;28;20014;-71
2023/01/04 09:25:20;;;;;;;;;;;21.00;99.90;;;;;;5068376;28;19913;-74
2023/01/04 09:27:46;;;;;;;;;;;21.00;99.90;;;;;;5064393;28;22149;-76
2023/01/04 09:30:13;;;;;;;;;;;20.90;99.90;;;;;;5066945;28;20350;-75
2023/01/04 09:32:40;;;;;;;;;;;21.00;99.90;;;;;;5066978;28;19964;-76
2023/01/04 09:35:07;;;;;;;;;;;21.00;99.90;;;;;;5068214;28;20359;-76
2023/01/04 09:37:33;;;;;;;;;;;21.00;99.90;;;;;;5067797;28;20290;-76
2023/01/04 09:40:00;;;;;;;;;;;21.00;99.90;;;;;;5069415;28;20329;-79
2023/01/04 09:42:35;;;;;;;;;;;20.80;99.90;;;;;;5066587;28;19924;-70
2023/01/04 09:45:21;;;;;;;;;;;20.70;99.90;;;;;;5067262;28;19917;-71
2023/01/04 09:47:48;;;;;;;;;;;20.60;99.90;;;;;;5058765;28;19920;-73
2023/01/04 09:50:27;;;;;;;;;;;20.50;99.90;;;;;;5071149;28;20022;-71
2023/01/04 09:53:01;;;;;;;;;;;20.50;99.90;;;;;;5069519;28;19952;-73
2023/01/04 09:55:38;;;;;;;;;;;20.50;99.90;;;;;;5072339;28;20058;-73
2023/01/04 09:58:25;;;;;;;;;;;20.40;99.90;;;;;;5068420;28;19912;-72
2023/01/04 10:01:13;;;;;;;;;;;20.40;99.90;;;;;;5070498;28;20369;-72
2023/01/04 10:03:45;;;;;;;;;;;20.40;99.90;;;;;;5067247;28;19912;-71
2023/01/04 10:06:14;;;;;;;;;;;20.40;99.90;;;;;;5068888;28;20409;-73
2023/01/04 10:08:41;;;;;;;;;;;20.40;99.90;;;;;;5067306;28;19916;-73
2023/01/04 10:11:08;;;;;;;;;;;20.50;99.90;;;;;;5078480;28;19912;-72
2023/01/04 10:13:51;;;;;;;;;;;20.50;99.90;;;;;;5079894;28;19920;-73
2023/01/04 10:16:24;;;;;;;;;;;20.60;99.90;;;;;;5068519;28;20023;-71
2023/01/04 10:18:54;;;;;;;;;;;20.60;99.90;;;;;;5063505;28;20013;-71
2023/01/04 10:21:21;;;;;;;;;;;20.60;99.90;;;;;;5060786;28;20006;-70
2023/01/04 10:23:50;;;;;;;;;;;20.60;99.90;;;;;;5061053;28;19920;-71
2023/01/04 10:26:21;;;;;;;;;;;20.60;99.90;;;;;;5068060;28;20324;-72
2023/01/04 10:29:05;;;;;;;;;;;20.60;99.90;;;;;;5066450;28;19916;-74
2023/01/04 10:31:39;;;;;;;;;;;20.60;99.90;;;;;;5067366;28;20332;-76
2023/01/04 10:34:24;;;;;;;;;;;20.60;99.90;;;;;;5068360;28;20324;-73
2023/01/04 10:36:51;;;;;;;;;;;20.60;99.90;;;;;;5064626;28;19923;-72
2023/01/04 10:39:20;;;;;;;;;;;20.60;99.90;;;;;;5065002;28;20382;-74
2023/01/04 10:41:55;;;;;;;;;;;20.70;99.90;;;;;;5067476;28;19970;-74
2023/01/04 10:44:39;;;;;;;;;;;20.80;99.90;;;;;;5063193;28;19916;-75
2023/01/04 10:47:07;;;;;;;;;;;20.80;99.90;;;;;;5053236;28;19916;-71
2023/01/04 10:49:40;;;;;;;;;;;20.80;99.90;;;;;;5058564;28;20057;-73
2023/01/04 10:52:11;;;;;;;;;;;20.90;99.90;;;;;;5057229;28;19912;-72
2023/01/04 10:54:44;;;;;;;;;;;20.90;99.90;;;;;;5061546;28;19918;-72
2023/01/04 10:57:22;;;;;;;;;;;20.90;99.90;;;;;;5063103;28;19920;-76
2023/01/04 10:59:54;;;;;;;;;;;20.70;99.90;;;;;;5057336;28;20035;-77
2023/01/04 11:02:34;;;;;;;;;;;20.60;99.90;;;;;;5070760;28;19916;-76
2023/01/04 11:05:15;;;;;;;;;;;20.50;99.90;;;;;;5065886;28;19958;-77
2023/01/04 11:07:50;;;;;;;;;;;20.50;99.90;;;;;;5061484;28;19913;-76
2023/01/04 11:10:36;;;;;;;;;;;20.30;99.90;;;;;;5059179;28;19917;-76
2023/01/04 11:13:03;;;;;;;;;;;20.30;99.90;;;;;;5059689;28;19932;-73
2023/01/04 11:15:30;;;;;;;;;;;20.20;99.90;;;;;;5056693;28;19912;-77
2023/01/04 11:17:58;;;;;;;;;;;20.10;99.90;;;;;;5066144;28;19924;-75
2023/01/04 11:20:24;;;;;;;;;;;20.10;99.90;;;;;;5061654;28;20436;-74
2023/01/04 11:23:09;;;;;;;;;;;20.10;99.90;;;;;;5055423;28;20006;-74
2023/01/04 11:25:41;;;;;;;;;;;20.00;99.90;;;;;;5070040;28;19957;-73
2023/01/04 11:28:08;;;;;;;;;;;20.00;99.90;;;;;;5070582;28;19943;-75
2023/01/04 11:30:54;;;;;;;;;;;20.10;99.90;;;;;;5066883;28;19913;-70
2023/01/04 11:33:22;;;;;;;;;;;20.00;99.90;;;;;;5065853;28;19927;-75
2023/01/04 11:35:50;;;;;;;;;;;20.00;99.90;;;;;;5069817;28;19954;-74
2023/01/04 11:38:21;;;;;;;;;;;20.00;99.90;;;;;;5069921;28;20058;-71
2023/01/04 11:40:55;;;;;;;;;;;20.00;99.90;;;;;;5066856;28;19932;-77
2023/01/04 11:43:22;;;;;;;;;;;19.90;99.90;;;;;;5067446;28;19916;-74
2023/01/04 11:46:02;;;;;;;;;;;19.90;99.90;;;;;;5066002;28;19939;-77
2023/01/04 11:48:33;;;;;;;;;;;19.90;99.90;;;;;;5094231;28;19974;-71
2023/01/04 11:51:00;;;;;;;;;;;19.90;99.90;;;;;;5071991;28;20013;-74
2023/01/04 11:53:34;;;;;;;;;;;19.90;99.90;;;;;;5073759;28;20298;-72
2023/01/04 11:56:16;;;;;;;;;;;19.90;99.90;;;;;;5066573;28;19917;-70
2023/01/04 11:58:43;;;;;;;;;;;19.80;99.90;;;;;;5068416;28;19919;-77
2023/01/04 12:01:23;;;;;;;;;;;19.80;99.90;;;;;;5064653;28;20366;-75
2023/01/04 12:03:50;;;;;;;;;;;19.70;99.90;;;;;;5067428;28;19955;-77
2023/01/04 12:06:20;;;;;;;;;;;19.70;99.90;;;;;;5073015;28;19924;-78
2023/01/04 12:08:47;;;;;;;;;;;19.60;99.90;;;;;;5064250;28;19917;-75
2023/01/04 12:11:18;;;;;;;;;;;19.50;99.90;;;;;;5069567;28;20007;-70
2023/01/04 12:13:44;;;;;;;;;;;19.40;99.90;;;;;;5061416;28;19916;-79
2023/01/04 12:16:31;;;;;;;;;;;19.30;99.90;;;;;;5071758;28;19963;-76
2023/01/04 12:18:58;;;;;;;;;;;19.20;99.90;;;;;;5068626;28;19955;-70
2023/01/04 12:21:25;;;;;;;;;;;19.20;99.90;;;;;;5066723;28;20298;-79
2023/01/04 12:23:53;;;;;;;;;;;19.10;99.90;;;;;;5066548;28;19912;-74
2023/01/04 12:26:22;;;;;;;;;;;19.10;99.90;;;;;;5071305;28;19962;-78
2023/01/04 12:29:11;;;;;;;;;;;18.90;99.90;;;;;;5074482;28;19913;-75
2023/01/04 12:31:38;;;;;;;;;;;18.90;99.90;;;;;;5065317;28;19956;-75
2023/01/04 12:34:24;;;;;;;;;;;18.80;99.90;;;;;;5067947;28;19920;-78
2023/01/04 12:36:56;;;;;;;;;;;18.80;99.90;;;;;;5098463;28;19999;-74
2023/01/04 12:39:22;;;;;;;;;;;18.70;99.90;;;;;;5066228;28;19924;-75
2023/01/04 12:42:02;;;;;;;;;;;18.70;99.90;;;;;;5068448;28;19964;-73
2023/01/04 12:44:38;;;;;;;;;;;18.60;99.90;;;;;;5067580;28;20286;-75
2023/01/04 12:50:11;;;;;;;;;;;18.50;99.90;;;;;;5062152;28;20079;-76
2023/01/04 12:52:41;;;;;;;;;;;18.50;99.90;;;;;;5063291;28;19920;-75
2023/01/04 12:55:26;;;;;;;;;;;18.50;99.90;;;;;;5065740;28;19912;-79
2023/01/04 12:57:53;;;;;;;;;;;18.50;99.90;;;;;;5069049;28;19928;-77
2023/01/04 13:00:20;;;;;;;;;;;18.40;99.90;;;;;;5067511;28;19924;-74
2023/01/04 13:02:51;;;;;;;;;;;18.40;99.90;;;;;;5067703;28;19967;-74
2023/01/04 13:05:20;;;;;;;;;;;18.40;99.90;;;;;;5070382;28;19916;-75
2023/01/04 13:07:49;;;;;;;;;;;18.30;99.90;;;;;;5064436;28;20438;-76
2023/01/04 13:10:34;;;;;;;;;;;18.40;99.90;;;;;;5062899;28;19971;-78
2023/01/04 13:13:20;;;;;;;;;;;18.40;99.90;;;;;;5073309;28;19927;-70
2023/01/04 13:16:02;;;;;;;;;;;18.40;99.90;;;;;;5062820;28;19916;-76
2023/01/04 13:18:47;;;;;;;;;;;18.40;99.90;;;;;;5062907;28;19913;-74
2023/01/04 13:21:17;;;;;;;;;;;18.30;99.90;;;;;;5064006;28;19921;-72
2023/01/04 13:23:51;;;;;;;;;;;18.20;99.90;;;;;;5065743;28;19935;-73
2023/01/04 13:26:27;;;;;;;;;;;18.10;99.90;;;;;;5067883;28;19920;-74
2023/01/04 13:29:07;;;;;;;;;;;18.10;99.90;;;;;;5062837;28;19916;-72
2023/01/04 13:31:49;;;;;;;;;;;18.10;99.90;;;;;;5070112;28;19916;-75
2023/01/04 13:34:35;;;;;;;;;;;18.10;99.90;;;;;;5066664;28;19917;-71
2023/01/04 13:37:08;;;;;;;;;;;18.10;99.90;;;;;;5069958;28;19965;-69
2023/01/04 13:39:36;;;;;;;;;;;18.00;99.90;;;;;;5069221;28;19977;-68
2023/01/04 13:42:03;;;;;;;;;;;18.00;99.90;;;;;;5063318;28;19916;-69
2023/01/04 13:44:55;;;;;;;;;;;18.00;99.90;;;;;;5059295;28;19996;-71
2023/01/04 13:47:22;;;;;;;;;;;18.00;99.90;;;;;;5066731;28;19917;-69
2023/01/04 13:49:49;;;;;;;;;;;18.00;99.90;;;;;;5063594;28;19951;-69
2023/01/04 13:52:27;;;;;;;;;;;18.00;99.90;;;;;;5066141;28;20011;-79
2023/01/04 13:55:23;;;;;;;;;;;18.10;99.90;;;;;;5063479;28;20881;-74
2023/01/04 13:57:55;;;;;;;;;;;18.10;99.90;;;;;;5055407;28;19916;-72
2023/01/04 14:00:22;;;;;;;;;;;18.10;99.90;;;;;;5083653;28;20002;-78
2023/01/04 14:03:01;;;;;;;;;;;18.10;99.90;;;;;;5061940;28;19943;-73
2023/01/04 14:05:28;;;;;;;;;;;18.10;99.90;;;;;;5061729;28;20263;-75
2023/01/04 14:07:55;;;;;;;;;;;18.10;99.90;;;;;;5062808;28;19912;-76
2023/01/04 14:10:21;;;;;;;;;;;18.10;99.90;;;;;;5087624;28;19967;-77
2023/01/04 14:12:48;;;;;;;;;;;18.10;99.90;;;;;;5086587;28;19920;-78
2023/01/04 14:15:22;;;;;;;;;;;18.10;99.90;;;;;;5067375;28;19926;-74
2023/01/04 14:17:50;;;;;;;;;;;18.10;99.90;;;;;;5068756;28;19926;-76
2023/01/04 14:20:23;;;;;;;;;;;18.10;99.90;;;;;;5067730;28;19974;-73
2023/01/04 14:22:51;;;;;;;;;;;18.10;99.90;;;;;;5059260;28;19972;-75
2023/01/04 14:25:33;;;;;;;;;;;18.10;99.90;;;;;;5061525;28;20259;-73
2023/01/04 14:28:18;;;;;;;;;;;18.10;99.90;;;;;;5061439;28;19916;-77
2023/01/04 14:30:50;;;;;;;;;;;18.10;99.90;;;;;;5070174;28;19935;-73
2023/01/04 14:33:19;;;;;;;;;;;18.10;99.90;;;;;;5067645;28;19912;-76
2023/01/04 14:35:46;;;;;;;;;;;18.10;99.90;;;;;;5069871;28;19938;-75
2023/01/04 14:38:15;;;;;;;;;;;18.10;99.90;;;;;;5058208;28;20041;-73
2023/01/04 14:40:41;;;;;;;;;;;18.10;99.90;;;;;;5061682;28;19926;-70
2023/01/04 14:43:40;;;;;;;;;;;18.10;99.90;;;;;;5064105;28;19923;-77
2023/01/04 14:46:08;;;;;;;;;;;18.10;99.90;;;;;;5055494;28;19912;-72
2023/01/04 14:48:35;;;;;;;;;;;18.10;99.90;;;;;;5066463;28;20015;-70
2023/01/04 14:51:03;;;;;;;;;;;18.10;99.90;;;;;;5060058;28;20020;-76
2023/01/04 14:53:30;;;;;;;;;;;18.10;99.90;;;;;;5074325;28;19916;-76
2023/01/04 14:55:58;;;;;;;;;;;18.10;99.90;;;;;;5070612;28;19909;-77
2023/01/04 14:58:24;;;;;;;;;;;18.10;99.90;;;;;;5065068;28;19955;-76
2023/01/04 15:00:51;;;;;;;;;;;18.10;99.90;;;;;;5069464;28;19931;-79
2023/01/04 15:03:18;;;;;;;;;;;18.10;99.90;;;;;;5068049;28;19912;-77
2023/01/04 15:05:45;;;;;;;;;;;18.10;99.90;;;;;;5068611;28;19923;-79
2023/01/04 15:08:12;;;;;;;;;;;18.00;99.90;;;;;;5069191;28;20003;-78
2023/01/04 15:10:39;;;;;;;;;;;18.00;99.90;;;;;;5051531;28;19913;-77
2023/01/04 15:13:06;;;;;;;;;;;18.00;99.90;;;;;;5054653;28;19983;-79
2023/01/04 15:15:32;;;;;;;;;;;18.00;99.90;;;;;;5079141;28;19912;-79
2023/01/04 15:17:59;;;;;;;;;;;18.00;99.90;;;;;;5078281;28;19917;-75
2023/01/04 15:20:26;;;;;;;;;;;18.00;99.90;;;;;;5071172;28;19912;-74
2023/01/04 15:22:52;;;;;;;;;;;18.00;99.90;;;;;;5067780;28;20350;-80
2023/01/04 15:25:19;;;;;;;;;;;18.00;99.90;;;;;;5068694;28;19920;-79